createdAt,value
2019-04-07T00:01:34.445Z,98699.00
2019-04-07T00:04:04.313Z,98699.00
2019-04-07T00:06:33.653Z,98692.00
2019-04-07T00:09:03.013Z,98693.00
2019-04-07T00:11:32.429Z,98702.00
2019-04-07T00:14:01.503Z,98694.00
2019-04-07T00:16:30.943Z,98699.00
2019-04-07T00:19:00.149Z,98694.00
2019-04-07T00:21:30.172Z,98696.00
2019-04-07T00:24:01.735Z,98689.00
2019-04-07T00:26:30.372Z,98691.00
2019-04-07T00:28:59.962Z,98690.00
2019-04-07T00:31:29.430Z,98691.00
2019-04-07T00:33:58.585Z,98692.00
2019-04-07T00:36:27.971Z,98687.00
2019-04-07T00:38:57.046Z,98689.00
2019-04-07T00:41:26.459Z,98695.00
2019-04-07T00:43:56.126Z,98688.00
2019-04-07T00:46:25.184Z,98686.00
2019-04-07T00:48:54.294Z,98680.00
2019-04-07T00:51:23.379Z,98687.00
2019-04-07T00:53:53.055Z,98686.00
2019-04-07T00:56:22.364Z,98685.00
2019-04-07T00:58:51.501Z,98675.00
2019-04-07T01:01:20.873Z,98690.00
2019-04-07T01:03:50.348Z,98685.00
2019-04-07T01:06:19.410Z,98687.00
2019-04-07T01:08:49.103Z,98688.00
2019-04-07T01:11:18.959Z,98688.00
2019-04-07T01:13:48.092Z,98694.00
2019-04-07T01:16:17.466Z,98690.00
2019-04-07T01:18:46.864Z,98697.00
2019-04-07T01:21:16.069Z,98696.00
2019-04-07T01:23:45.162Z,98710.00
2019-04-07T01:26:14.465Z,98697.00
2019-04-07T01:28:44.064Z,98709.00
2019-04-07T01:31:13.395Z,98703.00
2019-04-07T01:33:43.130Z,98707.00
2019-04-07T01:36:12.673Z,98708.00
2019-04-07T01:38:42.201Z,98703.00
2019-04-07T01:41:13.244Z,98701.00
2019-04-07T01:43:44.691Z,98710.00
2019-04-07T01:46:21.783Z,98708.00
2019-04-07T01:49:10.933Z,98715.00
2019-04-07T01:51:42.439Z,98705.00
2019-04-07T01:54:13.420Z,98704.00
2019-04-07T01:56:49.846Z,98706.00
2019-04-07T01:59:32.038Z,98706.00
2019-04-07T02:02:06.001Z,98704.00
2019-04-07T02:04:43.548Z,98700.00
2019-04-07T02:07:17.339Z,98703.00
2019-04-07T02:09:57.267Z,98700.00
2019-04-07T02:12:28.091Z,98699.00
2019-04-07T02:15:02.290Z,98693.00
2019-04-07T02:17:33.026Z,98698.00
2019-04-07T02:20:05.122Z,98701.00
2019-04-07T02:22:36.622Z,98694.00
2019-04-07T02:25:20.784Z,98696.00
2019-04-07T02:27:57.766Z,98698.00
2019-04-07T02:30:31.683Z,98698.00
2019-04-07T02:33:18.803Z,98700.00
2019-04-07T02:35:50.445Z,98699.00
2019-04-07T02:38:33.452Z,98701.00
2019-04-07T02:41:08.822Z,98695.00
2019-04-07T02:43:46.491Z,98703.00
2019-04-07T02:46:27.017Z,98702.00
2019-04-07T02:49:14.272Z,98705.00
2019-04-07T02:51:56.550Z,98705.00
2019-04-07T02:54:36.110Z,98699.00
2019-04-07T02:57:24.217Z,98704.00
2019-04-07T02:59:55.824Z,98711.00
2019-04-07T03:02:35.901Z,98705.00
2019-04-07T03:05:20.987Z,98703.00
2019-04-07T03:08:01.584Z,98708.00
2019-04-07T03:10:35.123Z,98704.00
2019-04-07T03:13:12.753Z,98703.00
2019-04-07T03:15:44.222Z,98709.00
2019-04-07T03:18:17.790Z,98709.00
2019-04-07T03:21:04.373Z,98705.00
2019-04-07T03:23:53.383Z,98710.00
2019-04-07T03:26:27.070Z,98708.00
2019-04-07T03:29:14.143Z,98702.00
2019-04-07T03:31:46.814Z,98706.00
2019-04-07T03:34:23.349Z,98708.00
2019-04-07T03:37:15.100Z,98704.00
2019-04-07T03:39:31.955Z,98706.00
2019-04-07T03:42:18.957Z,98703.00
2019-04-07T03:44:51.191Z,98712.00
2019-04-07T03:47:25.787Z,98703.00
2019-04-07T03:49:57.032Z,98702.00
2019-04-07T03:52:30.764Z,98697.00
2019-04-07T03:55:04.935Z,98692.00
2019-04-07T03:57:36.445Z,98693.00
2019-04-07T04:00:10.490Z,98687.00
2019-04-07T04:02:56.677Z,98697.00
2019-04-07T04:05:34.141Z,98696.00
2019-04-07T04:08:22.821Z,98698.00
2019-04-07T04:10:56.747Z,98704.00
2019-04-07T04:13:27.563Z,98697.00
2019-04-07T04:15:58.828Z,98707.00
2019-04-07T04:18:28.637Z,98704.00
2019-04-07T04:20:57.816Z,98712.00
2019-04-07T04:23:26.914Z,98712.00
2019-04-07T04:25:56.088Z,98712.00
2019-04-07T04:28:25.429Z,98709.00
2019-04-07T04:30:54.550Z,98720.00
2019-04-07T04:33:23.920Z,98712.00
2019-04-07T04:35:53.836Z,98716.00
2019-04-07T04:38:24.176Z,98705.00
2019-04-07T04:40:53.608Z,98708.00
2019-04-07T04:43:23.314Z,98715.00
2019-04-07T04:45:53.431Z,98712.00
2019-04-07T04:48:23.770Z,98710.00
2019-04-07T04:50:53.235Z,98716.00
2019-04-07T04:53:22.648Z,98719.00
2019-04-07T04:55:52.065Z,98721.00
2019-04-07T04:58:21.473Z,98716.00
2019-04-07T05:00:50.935Z,98729.00
2019-04-07T05:03:20.308Z,98723.00
2019-04-07T05:05:49.417Z,98722.00
2019-04-07T05:08:18.813Z,98731.00
2019-04-07T05:10:48.258Z,98727.00
2019-04-07T05:13:17.988Z,98720.00
2019-04-07T05:15:47.064Z,98734.00
2019-04-07T05:18:16.648Z,98738.00
2019-04-07T05:20:46.021Z,98727.00
2019-04-07T05:23:15.221Z,98734.00
2019-04-07T05:25:44.952Z,98734.00
2019-04-07T05:28:14.312Z,98738.00
2019-04-07T05:30:43.711Z,98725.00
2019-04-07T05:33:14.000Z,98742.00
2019-04-07T05:35:44.071Z,98739.00
2019-04-07T05:38:13.623Z,98744.00
2019-04-07T05:40:43.296Z,98745.00
2019-04-07T05:43:12.357Z,98740.00
2019-04-07T05:45:41.993Z,98744.00
2019-04-07T05:48:11.157Z,98747.00
2019-04-07T05:50:40.729Z,98757.00
2019-04-07T05:53:13.580Z,98760.00
2019-04-07T05:55:40.571Z,98753.00
2019-04-07T05:58:10.601Z,98770.00
2019-04-07T06:00:40.495Z,98767.00
2019-04-07T06:03:09.861Z,98772.00
2019-04-07T06:05:39.753Z,98763.00
2019-04-07T06:08:22.382Z,98772.00
2019-04-07T06:10:40.330Z,98774.00
2019-04-07T06:13:12.948Z,98776.00
2019-04-07T06:15:40.338Z,98778.00
2019-04-07T06:18:09.635Z,98787.00
2019-04-07T06:20:39.199Z,98784.00
2019-04-07T06:23:08.457Z,98787.00
2019-04-07T06:25:41.504Z,98791.00
2019-04-07T06:28:08.739Z,98793.00
2019-04-07T06:30:38.074Z,98804.00
2019-04-07T06:33:07.415Z,98797.00
2019-04-07T06:35:36.831Z,98792.00
2019-04-07T06:38:07.825Z,98796.00
2019-04-07T06:40:37.282Z,98804.00
2019-04-07T06:43:07.447Z,98805.00
2019-04-07T06:45:52.798Z,98806.00
2019-04-07T06:48:22.196Z,98803.00
2019-04-07T06:51:04.978Z,98814.00
2019-04-07T06:53:52.419Z,98819.00
2019-04-07T06:56:26.212Z,98814.00
2019-04-07T06:59:15.342Z,98814.00
2019-04-07T07:01:50.615Z,98810.00
2019-04-07T07:04:21.309Z,98818.00
2019-04-07T07:07:02.349Z,98813.00
2019-04-07T07:09:38.597Z,98822.00
2019-04-07T07:12:18.684Z,98816.00
2019-04-07T07:14:46.132Z,98817.00
2019-04-07T07:17:18.552Z,98818.00
2019-04-07T07:20:01.771Z,98819.00
2019-04-07T07:22:41.507Z,98814.00
2019-04-07T07:25:12.151Z,98819.00
2019-04-07T07:27:43.168Z,98826.00
2019-04-07T07:30:13.160Z,98829.00
2019-04-07T07:32:43.236Z,98833.00
2019-04-07T07:35:14.993Z,98835.00
2019-04-07T07:37:43.482Z,98826.00
2019-04-07T07:40:16.047Z,98831.00
2019-04-07T07:42:44.117Z,98827.00
2019-04-07T07:45:13.994Z,98833.00
2019-04-07T07:47:43.812Z,98826.00
2019-04-07T07:50:13.589Z,98835.00
2019-04-07T07:52:43.118Z,98831.00
2019-04-07T07:55:13.153Z,98827.00
2019-04-07T07:57:42.573Z,98830.00
2019-04-07T08:00:12.564Z,98842.00
2019-04-07T08:02:41.901Z,98836.00
2019-04-07T08:05:11.447Z,98840.00
2019-04-07T08:07:44.362Z,98844.00
2019-04-07T08:10:14.823Z,98849.00
2019-04-07T08:12:43.903Z,98844.00
2019-04-07T08:15:14.680Z,98851.00
2019-04-07T08:17:45.277Z,98851.00
2019-04-07T08:20:15.230Z,98847.00
2019-04-07T08:22:44.969Z,98855.00
2019-04-07T08:25:15.338Z,98858.00
2019-04-07T08:27:45.260Z,98850.00
2019-04-07T08:30:14.644Z,98844.00
2019-04-07T08:32:44.254Z,98850.00
2019-04-07T08:35:17.631Z,98847.00
2019-04-07T08:37:47.137Z,98856.00
2019-04-07T08:40:17.015Z,98853.00
2019-04-07T08:42:48.488Z,98854.00
2019-04-07T08:45:17.971Z,98854.00
2019-04-07T08:47:48.885Z,98853.00
2019-04-07T08:50:20.822Z,98855.00
2019-04-07T08:52:49.875Z,98854.00
2019-04-07T08:55:20.438Z,98858.00
2019-04-07T08:57:51.651Z,98858.00
2019-04-07T09:00:22.842Z,98853.00
2019-04-07T09:03:01.814Z,98858.00
2019-04-07T09:05:27.670Z,98858.00
2019-04-07T09:07:55.158Z,98852.00
2019-04-07T09:10:29.470Z,98851.00
2019-04-07T09:13:00.650Z,98852.00
2019-04-07T09:15:36.894Z,98864.00
2019-04-07T09:18:12.723Z,98851.00
2019-04-07T09:20:44.377Z,98853.00
2019-04-07T09:23:29.505Z,98848.00
2019-04-07T09:26:17.469Z,98859.00
2019-04-07T09:28:55.439Z,98859.00
2019-04-07T09:31:43.575Z,98852.00
2019-04-07T09:34:18.204Z,98854.00
2019-04-07T09:36:49.930Z,98854.00
2019-04-07T09:39:53.839Z,98848.00
2019-04-07T09:42:14.851Z,98851.00
2019-04-07T09:44:48.230Z,98851.00
2019-04-07T09:47:28.275Z,98857.00
2019-04-07T09:50:01.683Z,98857.00
2019-04-07T09:52:32.471Z,98856.00
2019-04-07T09:55:03.200Z,98856.00
2019-04-07T09:57:38.766Z,98857.00
2019-04-07T10:00:14.461Z,98860.00
2019-04-07T10:02:54.225Z,98855.00
2019-04-07T10:05:40.960Z,98856.00
2019-04-07T10:08:19.508Z,98854.00
2019-04-07T10:11:03.043Z,98852.00
2019-04-07T10:13:46.350Z,98858.00
2019-04-07T10:16:32.076Z,98855.00
2019-04-07T10:19:11.224Z,98859.00
2019-04-07T10:21:53.603Z,98851.00
2019-04-07T10:24:31.492Z,98854.00
2019-04-07T10:27:04.657Z,98854.00
2019-04-07T10:29:43.824Z,98849.00
2019-04-07T10:32:30.958Z,98856.00
2019-04-07T10:35:11.273Z,98858.00
2019-04-07T10:37:51.076Z,98857.00
2019-04-07T10:40:33.374Z,98859.00
2019-04-07T10:43:19.624Z,98838.00
2019-04-07T10:46:07.885Z,98847.00
2019-04-07T10:48:41.528Z,98855.00
2019-04-07T10:51:15.317Z,98856.00
2019-04-07T10:54:04.856Z,98849.00
2019-04-07T10:56:35.876Z,98868.00
2019-04-07T10:59:18.578Z,98847.00
2019-04-07T11:01:53.408Z,98850.00
2019-04-07T11:04:24.359Z,98842.00
2019-04-07T11:07:04.180Z,98846.00
2019-04-07T11:09:51.166Z,98847.00
2019-04-07T11:12:34.685Z,98843.00
2019-04-07T11:15:23.685Z,98846.00
2019-04-07T11:18:10.124Z,98839.00
2019-04-07T11:20:40.962Z,98845.00
2019-04-07T11:23:14.565Z,98849.00
2019-04-07T11:25:46.112Z,98851.00
2019-04-07T11:28:29.183Z,98851.00
2019-04-07T11:31:16.821Z,98848.00
2019-04-07T11:33:50.516Z,98840.00
2019-04-07T11:36:30.943Z,98846.00
2019-04-07T11:39:04.727Z,98853.00
2019-04-07T11:41:39.231Z,98857.00
2019-04-07T11:44:26.402Z,98855.00
2019-04-07T11:47:00.483Z,98856.00
2019-04-07T11:49:47.454Z,98843.00
2019-04-07T11:52:24.592Z,98855.00
2019-04-07T11:55:11.907Z,98852.00
2019-04-07T11:57:45.622Z,98837.00
2019-04-07T12:00:23.787Z,98853.00
2019-04-07T12:03:09.538Z,98831.00
2019-04-07T12:05:40.821Z,98858.00
2019-04-07T12:08:17.888Z,98841.00
2019-04-07T12:10:58.450Z,98845.00
2019-04-07T12:13:22.016Z,98846.00
2019-04-07T12:16:09.269Z,98845.00
2019-04-07T12:18:50.181Z,98850.00
2019-04-07T12:21:23.258Z,98842.00
2019-04-07T12:24:09.749Z,98840.00
2019-04-07T12:26:43.769Z,98836.00
2019-04-07T12:29:22.239Z,98846.00
2019-04-07T12:31:53.289Z,98835.00
2019-04-07T12:37:15.833Z,98846.00
2019-04-07T12:39:49.516Z,98839.00
2019-04-07T12:42:24.840Z,98829.00
2019-04-07T12:45:12.406Z,98833.00
2019-04-07T12:47:49.351Z,98827.00
2019-04-07T12:50:32.823Z,98833.00
2019-04-07T12:53:05.143Z,98832.00
2019-04-07T12:55:53.360Z,98818.00
2019-04-07T12:58:18.262Z,98826.00
2019-04-07T13:01:12.135Z,98825.00
2019-04-07T13:03:49.519Z,98813.00
2019-04-07T13:06:20.616Z,98826.00
2019-04-07T13:08:56.602Z,98816.00
2019-04-07T13:11:35.377Z,98811.00
2019-04-07T13:14:10.170Z,98814.00
2019-04-07T13:16:59.161Z,98805.00
2019-04-07T13:19:44.063Z,98816.00
2019-04-07T13:22:15.145Z,98813.00
2019-04-07T13:24:51.859Z,98812.00
2019-04-07T13:27:37.214Z,98802.00
2019-04-07T13:30:19.188Z,98811.00
2019-04-07T13:33:00.464Z,98810.00
2019-04-07T13:35:28.644Z,98801.00
2019-04-07T13:38:17.854Z,98813.00
2019-04-07T13:40:52.025Z,98811.00
2019-04-07T13:43:23.319Z,98811.00
2019-04-07T13:45:56.909Z,98811.00
2019-04-07T13:48:33.400Z,98800.00
2019-04-07T13:51:20.699Z,98803.00
2019-04-07T13:53:57.633Z,98803.00
2019-04-07T13:56:28.573Z,98800.00
2019-04-07T13:59:16.065Z,98786.00
2019-04-07T14:01:54.562Z,98801.00
2019-04-07T14:04:42.382Z,98792.00
2019-04-07T14:07:19.840Z,98787.00
2019-04-07T14:10:06.842Z,98793.00
2019-04-07T14:12:41.147Z,98796.00
2019-04-07T14:15:17.387Z,98788.00
2019-04-07T14:18:03.564Z,98797.00
2019-04-07T14:20:34.676Z,98788.00
2019-04-07T14:23:06.152Z,98793.00
2019-04-07T14:25:45.357Z,98796.00
2019-04-07T14:28:20.697Z,98802.00
2019-04-07T14:31:09.631Z,98796.00
2019-04-07T14:33:52.361Z,98802.00
2019-04-07T14:36:26.212Z,98796.00
2019-04-07T14:38:57.515Z,98798.00
2019-04-07T14:41:43.481Z,98787.00
2019-04-07T14:44:15.122Z,98783.00
2019-04-07T14:46:52.385Z,98791.00
2019-04-07T14:49:39.540Z,98786.00
2019-04-07T14:52:19.859Z,98781.00
2019-04-07T14:54:57.111Z,98779.00
2019-04-07T14:57:29.185Z,98792.00
2019-04-07T15:00:11.581Z,98794.00
2019-04-07T15:02:41.196Z,98800.00
2019-04-07T15:05:12.559Z,98791.00
2019-04-07T15:07:44.021Z,98786.00
2019-04-07T15:10:20.133Z,98792.00
2019-04-07T15:12:56.844Z,98783.00
2019-04-07T15:15:26.617Z,98781.00
2019-04-07T15:17:56.172Z,98797.00
2019-04-07T15:20:25.543Z,98797.00
2019-04-07T15:22:58.363Z,98792.00
2019-04-07T15:25:27.378Z,98777.00
2019-04-07T15:27:58.918Z,98795.00
2019-04-07T15:30:27.670Z,98795.00
2019-04-07T15:32:59.487Z,98793.00
2019-04-07T15:35:28.027Z,98798.00
2019-04-07T15:37:57.174Z,98787.00
2019-04-07T15:40:26.565Z,98799.00
2019-04-07T15:42:56.905Z,98801.00
2019-04-07T15:45:26.645Z,98791.00
2019-04-07T15:47:56.475Z,98787.00
2019-04-07T15:50:29.256Z,98797.00
2019-04-07T15:52:56.892Z,98786.00
2019-04-07T15:55:42.207Z,98802.00
2019-04-07T15:57:58.410Z,98792.00
2019-04-07T16:00:28.339Z,98800.00
2019-04-07T16:02:57.825Z,98795.00
2019-04-07T16:05:27.858Z,98792.00
2019-04-07T16:07:57.777Z,98807.00
2019-04-07T16:10:26.974Z,98803.00
2019-04-07T16:12:58.806Z,98802.00
2019-04-07T16:15:27.431Z,98804.00
2019-04-07T16:17:56.716Z,98809.00
2019-04-07T16:20:31.586Z,98805.00
2019-04-07T16:22:57.524Z,98808.00
2019-04-07T16:25:28.178Z,98814.00
2019-04-07T16:27:58.733Z,98815.00
2019-04-07T16:30:27.914Z,98809.00
2019-04-07T16:32:59.801Z,98811.00
2019-04-07T16:35:27.856Z,98816.00
2019-04-07T16:37:58.374Z,98814.00
2019-04-07T16:40:28.112Z,98810.00
2019-04-07T16:43:07.731Z,98818.00
2019-04-07T16:45:29.338Z,98819.00
2019-04-07T16:47:58.839Z,98822.00
2019-04-07T16:50:28.271Z,98817.00
2019-04-07T16:52:57.502Z,98819.00
2019-04-07T16:55:46.591Z,98817.00
2019-04-07T16:58:14.602Z,98817.00
2019-04-07T17:00:43.688Z,98815.00
2019-04-07T17:03:13.222Z,98818.00
2019-04-07T17:05:43.067Z,98817.00
2019-04-07T17:08:12.890Z,98819.00
2019-04-07T17:10:42.530Z,98819.00
2019-04-07T17:13:19.694Z,98819.00
2019-04-07T17:15:43.212Z,98823.00
2019-04-07T17:18:39.792Z,98829.00
2019-04-07T17:21:15.519Z,98826.00
2019-04-07T17:23:45.548Z,98826.00
2019-04-07T17:26:14.974Z,98831.00
2019-04-07T17:28:46.036Z,98828.00
2019-04-07T17:31:15.548Z,98833.00
2019-04-07T17:33:45.568Z,98831.00
2019-04-07T17:36:17.647Z,98839.00
2019-04-07T17:38:50.229Z,98835.00
2019-04-07T17:41:21.341Z,98833.00
2019-04-07T17:44:06.999Z,98839.00
2019-04-07T17:46:40.774Z,98842.00
2019-04-07T17:49:30.902Z,98838.00
2019-04-07T17:52:11.201Z,98843.00
2019-04-07T17:54:58.935Z,98838.00
2019-04-07T17:57:46.176Z,98844.00
2019-04-07T18:00:21.643Z,98844.00
2019-04-07T18:03:04.561Z,98847.00
2019-04-07T18:05:31.277Z,98842.00
2019-04-07T18:08:18.066Z,98848.00
2019-04-07T18:11:07.588Z,98854.00
2019-04-07T18:13:57.457Z,98859.00
2019-04-07T18:16:40.778Z,98867.00
2019-04-07T18:19:28.873Z,98857.00
2019-04-07T18:22:08.182Z,98863.00
2019-04-07T18:24:38.947Z,98862.00
2019-04-07T18:27:25.452Z,98866.00
2019-04-07T18:30:00.742Z,98866.00
2019-04-07T18:32:31.912Z,98879.00
2019-04-07T18:35:19.486Z,98877.00
2019-04-07T18:38:09.431Z,98881.00
2019-04-07T18:40:58.440Z,98883.00
2019-04-07T18:43:27.805Z,98885.00
2019-04-07T18:46:15.972Z,98881.00
2019-04-07T18:48:53.331Z,98890.00
2019-04-07T18:51:30.133Z,98886.00
2019-04-07T18:54:03.076Z,98890.00
2019-04-07T18:56:49.561Z,98894.00
2019-04-07T18:59:23.503Z,98897.00
2019-04-07T19:01:57.836Z,98896.00
2019-04-07T19:04:44.547Z,98897.00
2019-04-07T19:07:16.939Z,98896.00
2019-04-07T19:09:50.844Z,98894.00
2019-04-07T19:12:28.872Z,98900.00
2019-04-07T19:15:06.647Z,98898.00
2019-04-07T19:17:36.212Z,98897.00
2019-04-07T19:20:26.549Z,98901.00
2019-04-07T19:23:12.248Z,98893.00
2019-04-07T19:25:47.754Z,98894.00
2019-04-07T19:28:25.135Z,98899.00
2019-04-07T19:30:55.869Z,98900.00
2019-04-07T19:33:35.664Z,98906.00
2019-04-07T19:36:15.344Z,98900.00
2019-04-07T19:38:54.375Z,98907.00
2019-04-07T19:41:41.369Z,98908.00
2019-04-07T19:44:35.562Z,98909.00
2019-04-07T19:47:14.180Z,98899.00
2019-04-07T19:50:01.059Z,98905.00
2019-04-07T19:52:50.315Z,98894.00
2019-04-07T19:55:37.207Z,98892.00
2019-04-07T19:58:26.731Z,98892.00
2019-04-07T20:01:06.685Z,98895.00
2019-04-07T20:03:40.172Z,98902.00
2019-04-07T20:06:10.626Z,98900.00
2019-04-07T20:08:44.123Z,98897.00
2019-04-07T20:11:34.432Z,98901.00
2019-04-07T20:14:14.019Z,98897.00
2019-04-07T20:16:47.498Z,98901.00
2019-04-07T20:19:40.269Z,98894.00
2019-04-07T20:22:09.746Z,98896.00
2019-04-07T20:24:47.249Z,98902.00
2019-04-07T20:27:32.305Z,98898.00
2019-04-07T20:30:03.108Z,98905.00
2019-04-07T20:32:37.354Z,98896.00
2019-04-07T20:35:27.257Z,98890.00
2019-04-07T20:38:10.546Z,98897.00
2019-04-07T20:40:49.878Z,98901.00
2019-04-07T20:43:26.123Z,98906.00
2019-04-07T20:46:13.146Z,98900.00
2019-04-07T20:48:59.266Z,98900.00
2019-04-07T20:51:36.873Z,98900.00
2019-04-07T20:54:14.049Z,98908.00
2019-04-07T20:56:57.479Z,98909.00
2019-04-07T20:59:31.443Z,98908.00
2019-04-07T21:02:09.525Z,98905.00
2019-04-07T21:04:42.180Z,98903.00
2019-04-07T21:07:25.006Z,98913.00
2019-04-07T21:09:56.640Z,98903.00
2019-04-07T21:12:31.483Z,98906.00
2019-04-07T21:15:16.101Z,98901.00
2019-04-07T21:17:35.292Z,98899.00
2019-04-07T21:20:09.716Z,98900.00
2019-04-07T21:22:56.260Z,98890.00
2019-04-07T21:25:29.426Z,98901.00
2019-04-07T21:28:00.299Z,98892.00
2019-04-07T21:30:39.997Z,98890.00
2019-04-07T21:33:11.168Z,98891.00
2019-04-07T21:35:42.643Z,98896.00
2019-04-07T21:38:24.432Z,98890.00
2019-04-07T21:41:12.658Z,98889.00
2019-04-07T21:43:49.388Z,98893.00
2019-04-07T21:46:34.956Z,98890.00
2019-04-07T21:49:05.727Z,98896.00
2019-04-07T21:51:39.825Z,98890.00
2019-04-07T21:54:19.995Z,98893.00
2019-04-07T21:57:08.797Z,98894.00
2019-04-07T21:59:39.799Z,98889.00
2019-04-07T22:02:13.693Z,98891.00
2019-04-07T22:04:54.075Z,98884.00
2019-04-07T22:07:35.530Z,98891.00
2019-04-07T22:10:09.441Z,98887.00
2019-04-07T22:12:38.936Z,98888.00
2019-04-07T22:15:11.710Z,98892.00
2019-04-07T22:17:39.356Z,98880.00
2019-04-07T22:20:10.274Z,98883.00
2019-04-07T22:22:39.614Z,98889.00
2019-04-07T22:25:10.141Z,98887.00
2019-04-07T22:27:39.931Z,98883.00
2019-04-07T22:30:11.774Z,98894.00
2019-04-07T22:32:41.151Z,98898.00
2019-04-07T22:35:10.713Z,98891.00
2019-04-07T22:37:40.063Z,98893.00
2019-04-07T22:40:21.735Z,98890.00
2019-04-07T22:42:51.186Z,98892.00
2019-04-07T22:45:25.278Z,98890.00
2019-04-07T22:47:52.416Z,98901.00
2019-04-07T22:50:22.274Z,98889.00
2019-04-07T22:52:52.205Z,98893.00
2019-04-07T22:55:21.602Z,98894.00
2019-04-07T22:57:51.467Z,98904.00
2019-04-07T23:00:27.052Z,98892.00
2019-04-07T23:02:56.478Z,98892.00
2019-04-07T23:05:25.672Z,98891.00
2019-04-07T23:07:54.843Z,98889.00
2019-04-07T23:10:25.116Z,98893.00
2019-04-07T23:12:55.250Z,98892.00
2019-04-07T23:15:37.285Z,98897.00
2019-04-07T23:17:55.911Z,98901.00
2019-04-07T23:20:25.035Z,98892.00
2019-04-07T23:22:54.391Z,98900.00
2019-04-07T23:25:23.474Z,98901.00
2019-04-07T23:27:52.811Z,98905.00
2019-04-07T23:30:24.317Z,98907.00
2019-04-07T23:32:53.491Z,98898.00
2019-04-07T23:35:22.980Z,98902.00
2019-04-07T23:37:52.314Z,98898.00
2019-04-07T23:40:21.389Z,98899.00
2019-04-07T23:42:50.977Z,98898.00
2019-04-07T23:45:19.997Z,98899.00
2019-04-07T23:47:50.361Z,98896.00
2019-04-07T23:50:19.567Z,98895.00
2019-04-07T23:52:49.667Z,98897.00
2019-04-07T23:55:20.377Z,98892.00
2019-04-07T23:57:52.183Z,98895.00
